sensor_id;sensor_type;location;lat;lon;timestamp;P1;durP1;ratioP1;P2;durP2;ratioP2
46447;SDS011;32145;50.390;30.778;2022-09-09T00:00:26;12.07;;;5.38;;
46447;SDS011;32145;50.390;30.778;2022-09-09T00:03:12;10.38;;;4.75;;
46447;SDS011;32145;50.390;30.778;2022-09-09T00:06:02;9.50;;;4.53;;
46447;SDS011;32145;50.390;30.778;2022-09-09T00:08:57;8.98;;;4.95;;
46447;SDS011;32145;50.390;30.778;2022-09-09T00:11:46;9.20;;;4.78;;
46447;SDS011;32145;50.390;30.778;2022-09-09T00:14:36;8.80;;;4.40;;
46447;SDS011;32145;50.390;30.778;2022-09-09T00:17:31;8.10;;;4.70;;
46447;SDS011;32145;50.390;30.778;2022-09-09T00:20:23;9.52;;;4.70;;
46447;SDS011;32145;50.390;30.778;2022-09-09T00:23:14;11.45;;;4.93;;
46447;SDS011;32145;50.390;30.778;2022-09-09T00:26:06;9.10;;;4.72;;
46447;SDS011;32145;50.390;30.778;2022-09-09T00:28:59;10.93;;;4.90;;
46447;SDS011;32145;50.390;30.778;2022-09-09T00:31:47;8.80;;;4.53;;
46447;SDS011;32145;50.390;30.778;2022-09-09T00:34:31;12.90;;;4.95;;
46447;SDS011;32145;50.390;30.778;2022-09-09T00:37:18;10.52;;;4.20;;
46447;SDS011;32145;50.390;30.778;2022-09-09T00:40:06;9.95;;;4.78;;
46447;SDS011;32145;50.390;30.778;2022-09-09T00:43:18;9.30;;;4.70;;
46447;SDS011;32145;50.390;30.778;2022-09-09T00:49:28;15.23;;;5.50;;
46447;SDS011;32145;50.390;30.778;2022-09-09T00:52:28;8.33;;;4.70;;
46447;SDS011;32145;50.390;30.778;2022-09-09T00:55:21;9.10;;;4.70;;
46447;SDS011;32145;50.390;30.778;2022-09-09T00:58:14;10.93;;;4.30;;
46447;SDS011;32145;50.390;30.778;2022-09-09T01:01:02;8.30;;;4.53;;
46447;SDS011;32145;50.390;30.778;2022-09-09T01:06:36;8.10;;;4.22;;
46447;SDS011;32145;50.390;30.778;2022-09-09T01:09:22;8.23;;;4.63;;
46447;SDS011;32145;50.390;30.778;2022-09-09T01:12:15;8.52;;;4.30;;
46447;SDS011;32145;50.390;30.778;2022-09-09T01:15:03;7.50;;;3.97;;
46447;SDS011;32145;50.390;30.778;2022-09-09T01:17:53;9.45;;;4.38;;
46447;SDS011;32145;50.390;30.778;2022-09-09T01:20:43;8.48;;;4.25;;
46447;SDS011;32145;50.390;30.778;2022-09-09T01:23:37;7.53;;;4.40;;
46447;SDS011;32145;50.390;30.778;2022-09-09T01:26:33;7.97;;;4.13;;
46447;SDS011;32145;50.390;30.778;2022-09-09T01:29:20;8.27;;;4.38;;
46447;SDS011;32145;50.390;30.778;2022-09-09T01:35:28;8.63;;;3.90;;
46447;SDS011;32145;50.390;30.778;2022-09-09T01:38:16;7.95;;;4.13;;
46447;SDS011;32145;50.390;30.778;2022-09-09T01:41:01;10.15;;;4.32;;
46447;SDS011;32145;50.390;30.778;2022-09-09T01:43:47;8.73;;;4.32;;
46447;SDS011;32145;50.390;30.778;2022-09-09T01:46:32;8.82;;;4.22;;
46447;SDS011;32145;50.390;30.778;2022-09-09T01:49:15;8.82;;;4.57;;
46447;SDS011;32145;50.390;30.778;2022-09-09T01:52:00;8.27;;;4.28;;
46447;SDS011;32145;50.390;30.778;2022-09-09T01:54:45;7.97;;;4.25;;
46447;SDS011;32145;50.390;30.778;2022-09-09T01:57:30;8.73;;;4.65;;
46447;SDS011;32145;50.390;30.778;2022-09-09T02:00:22;8.68;;;4.32;;
46447;SDS011;32145;50.390;30.778;2022-09-09T02:03:08;8.90;;;4.30;;
46447;SDS011;32145;50.390;30.778;2022-09-09T02:06:01;7.90;;;4.70;;
46447;SDS011;32145;50.390;30.778;2022-09-09T02:08:56;8.05;;;4.40;;
46447;SDS011;32145;50.390;30.778;2022-09-09T02:11:42;6.55;;;3.70;;
46447;SDS011;32145;50.390;30.778;2022-09-09T02:14:32;9.75;;;4.72;;
46447;SDS011;32145;50.390;30.778;2022-09-09T02:17:23;8.85;;;4.90;;
46447;SDS011;32145;50.390;30.778;2022-09-09T02:20:11;8.45;;;4.32;;
46447;SDS011;32145;50.390;30.778;2022-09-09T02:22:57;8.63;;;4.78;;
46447;SDS011;32145;50.390;30.778;2022-09-09T02:25:42;19.70;;;10.02;;
46447;SDS011;32145;50.390;30.778;2022-09-09T02:28:28;13.93;;;6.43;;
46447;SDS011;32145;50.390;30.778;2022-09-09T02:31:16;11.27;;;5.28;;
46447;SDS011;32145;50.390;30.778;2022-09-09T02:34:04;10.75;;;4.65;;
46447;SDS011;32145;50.390;30.778;2022-09-09T02:36:50;9.32;;;4.43;;
46447;SDS011;32145;50.390;30.778;2022-09-09T02:39:37;8.48;;;4.60;;
46447;SDS011;32145;50.390;30.778;2022-09-09T02:42:21;10.25;;;4.78;;
46447;SDS011;32145;50.390;30.778;2022-09-09T02:45:06;7.75;;;4.28;;
46447;SDS011;32145;50.390;30.778;2022-09-09T02:47:51;10.88;;;5.13;;
46447;SDS011;32145;50.390;30.778;2022-09-09T02:50:45;9.57;;;4.50;;
46447;SDS011;32145;50.390;30.778;2022-09-09T02:53:39;9.60;;;4.60;;
46447;SDS011;32145;50.390;30.778;2022-09-09T02:56:31;8.27;;;4.60;;
46447;SDS011;32145;50.390;30.778;2022-09-09T02:59:18;9.23;;;4.63;;
46447;SDS011;32145;50.390;30.778;2022-09-09T03:02:03;11.68;;;4.68;;
46447;SDS011;32145;50.390;30.778;2022-09-09T03:04:48;9.50;;;4.63;;
46447;SDS011;32145;50.390;30.778;2022-09-09T03:07:33;9.45;;;5.32;;
46447;SDS011;32145;50.390;30.778;2022-09-09T03:10:17;9.80;;;4.70;;
46447;SDS011;32145;50.390;30.778;2022-09-09T03:13:01;10.38;;;4.30;;
46447;SDS011;32145;50.390;30.778;2022-09-09T03:15:45;9.90;;;4.75;;
46447;SDS011;32145;50.390;30.778;2022-09-09T03:18:31;9.85;;;4.70;;
46447;SDS011;32145;50.390;30.778;2022-09-09T03:21:14;9.73;;;4.50;;
46447;SDS011;32145;50.390;30.778;2022-09-09T03:24:01;10.63;;;5.00;;
46447;SDS011;32145;50.390;30.778;2022-09-09T03:26:45;7.88;;;4.05;;
46447;SDS011;32145;50.390;30.778;2022-09-09T03:29:29;8.48;;;4.22;;
46447;SDS011;32145;50.390;30.778;2022-09-09T03:32:13;8.50;;;4.32;;
46447;SDS011;32145;50.390;30.778;2022-09-09T03:34:57;8.73;;;4.45;;
46447;SDS011;32145;50.390;30.778;2022-09-09T03:37:41;8.65;;;4.10;;
46447;SDS011;32145;50.390;30.778;2022-09-09T03:40:26;8.35;;;4.53;;
46447;SDS011;32145;50.390;30.778;2022-09-09T03:43:10;9.88;;;4.07;;
46447;SDS011;32145;50.390;30.778;2022-09-09T03:45:54;8.40;;;4.20;;
46447;SDS011;32145;50.390;30.778;2022-09-09T03:48:39;10.43;;;3.95;;
46447;SDS011;32145;50.390;30.778;2022-09-09T03:51:23;7.90;;;4.47;;
46447;SDS011;32145;50.390;30.778;2022-09-09T03:54:07;6.95;;;4.00;;
46447;SDS011;32145;50.390;30.778;2022-09-09T03:56:53;7.78;;;4.25;;
46447;SDS011;32145;50.390;30.778;2022-09-09T03:59:37;9.10;;;4.57;;
46447;SDS011;32145;50.390;30.778;2022-09-09T04:02:21;6.72;;;3.95;;
46447;SDS011;32145;50.390;30.778;2022-09-09T04:05:05;9.65;;;4.80;;
46447;SDS011;32145;50.390;30.778;2022-09-09T04:07:50;10.45;;;4.43;;
46447;SDS011;32145;50.390;30.778;2022-09-09T04:10:37;6.57;;;3.97;;
46447;SDS011;32145;50.390;30.778;2022-09-09T04:13:22;10.10;;;4.40;;
46447;SDS011;32145;50.390;30.778;2022-09-09T04:16:07;7.03;;;4.15;;
46447;SDS011;32145;50.390;30.778;2022-09-09T04:18:53;8.18;;;4.57;;
46447;SDS011;32145;50.390;30.778;2022-09-09T04:21:37;9.75;;;4.60;;
46447;SDS011;32145;50.390;30.778;2022-09-09T04:24:21;7.97;;;4.20;;
46447;SDS011;32145;50.390;30.778;2022-09-09T04:27:05;10.20;;;4.28;;
46447;SDS011;32145;50.390;30.778;2022-09-09T04:29:50;7.13;;;4.15;;
46447;SDS011;32145;50.390;30.778;2022-09-09T04:32:34;7.30;;;4.07;;
46447;SDS011;32145;50.390;30.778;2022-09-09T04:35:18;8.00;;;4.38;;
46447;SDS011;32145;50.390;30.778;2022-09-09T04:38:03;9.57;;;4.32;;
46447;SDS011;32145;50.390;30.778;2022-09-09T04:40:47;8.05;;;4.28;;
46447;SDS011;32145;50.390;30.778;2022-09-09T04:43:32;8.75;;;4.50;;
46447;SDS011;32145;50.390;30.778;2022-09-09T04:46:18;6.82;;;3.85;;
46447;SDS011;32145;50.390;30.778;2022-09-09T04:49:02;8.13;;;4.20;;
46447;SDS011;32145;50.390;30.778;2022-09-09T04:51:48;9.20;;;4.30;;
46447;SDS011;32145;50.390;30.778;2022-09-09T04:54:32;10.30;;;4.05;;
46447;SDS011;32145;50.390;30.778;2022-09-09T04:57:16;8.73;;;4.05;;
46447;SDS011;32145;50.390;30.778;2022-09-09T05:00:00;7.80;;;4.20;;
46447;SDS011;32145;50.390;30.778;2022-09-09T05:02:46;7.25;;;3.80;;
46447;SDS011;32145;50.390;30.778;2022-09-09T05:05:30;7.07;;;4.10;;
46447;SDS011;32145;50.390;30.778;2022-09-09T05:08:15;10.57;;;4.43;;
46447;SDS011;32145;50.390;30.778;2022-09-09T05:10:59;8.13;;;4.05;;
46447;SDS011;32145;50.390;30.778;2022-09-09T05:13:44;6.53;;;3.70;;
46447;SDS011;32145;50.390;30.778;2022-09-09T05:16:30;7.68;;;3.58;;
46447;SDS011;32145;50.390;30.778;2022-09-09T05:19:16;8.73;;;4.07;;
46447;SDS011;32145;50.390;30.778;2022-09-09T05:22:00;6.93;;;3.67;;
46447;SDS011;32145;50.390;30.778;2022-09-09T05:24:44;7.07;;;3.60;;
46447;SDS011;32145;50.390;30.778;2022-09-09T05:27:28;9.95;;;4.25;;
46447;SDS011;32145;50.390;30.778;2022-09-09T05:30:12;8.13;;;3.70;;
46447;SDS011;32145;50.390;30.778;2022-09-09T05:32:56;7.20;;;3.75;;
46447;SDS011;32145;50.390;30.778;2022-09-09T05:35:42;9.23;;;3.95;;
46447;SDS011;32145;50.390;30.778;2022-09-09T05:38:26;8.40;;;3.60;;
46447;SDS011;32145;50.390;30.778;2022-09-09T05:41:10;6.50;;;3.67;;
46447;SDS011;32145;50.390;30.778;2022-09-09T05:43:55;6.07;;;3.70;;
46447;SDS011;32145;50.390;30.778;2022-09-09T05:46:39;10.10;;;4.10;;
46447;SDS011;32145;50.390;30.778;2022-09-09T05:49:23;7.30;;;3.75;;
46447;SDS011;32145;50.390;30.778;2022-09-09T05:52:08;6.05;;;3.55;;
46447;SDS011;32145;50.390;30.778;2022-09-09T05:54:52;8.88;;;3.38;;
46447;SDS011;32145;50.390;30.778;2022-09-09T05:57:37;7.78;;;3.60;;
46447;SDS011;32145;50.390;30.778;2022-09-09T06:00:24;7.03;;;3.20;;
46447;SDS011;32145;50.390;30.778;2022-09-09T06:03:09;5.82;;;3.45;;
46447;SDS011;32145;50.390;30.778;2022-09-09T06:05:58;7.15;;;3.20;;
46447;SDS011;32145;50.390;30.778;2022-09-09T06:08:44;7.68;;;4.40;;
46447;SDS011;32145;50.390;30.778;2022-09-09T06:11:30;8.55;;;3.95;;
46447;SDS011;32145;50.390;30.778;2022-09-09T06:14:14;10.02;;;4.43;;
46447;SDS011;32145;50.390;30.778;2022-09-09T06:17:01;8.35;;;3.63;;
46447;SDS011;32145;50.390;30.778;2022-09-09T06:19:45;9.20;;;3.55;;
46447;SDS011;32145;50.390;30.778;2022-09-09T06:22:29;8.20;;;3.58;;
46447;SDS011;32145;50.390;30.778;2022-09-09T06:25:14;6.85;;;3.70;;
46447;SDS011;32145;50.390;30.778;2022-09-09T06:27:58;6.85;;;3.20;;
46447;SDS011;32145;50.390;30.778;2022-09-09T06:30:42;4.78;;;3.10;;
46447;SDS011;32145;50.390;30.778;2022-09-09T06:33:30;6.18;;;3.67;;
46447;SDS011;32145;50.390;30.778;2022-09-09T06:36:15;7.90;;;3.17;;
46447;SDS011;32145;50.390;30.778;2022-09-09T06:39:00;5.63;;;3.10;;
46447;SDS011;32145;50.390;30.778;2022-09-09T06:41:46;5.70;;;2.90;;
46447;SDS011;32145;50.390;30.778;2022-09-09T06:44:30;4.75;;;2.92;;
46447;SDS011;32145;50.390;30.778;2022-09-09T06:47:14;5.57;;;2.90;;
46447;SDS011;32145;50.390;30.778;2022-09-09T06:49:58;5.28;;;2.83;;
46447;SDS011;32145;50.390;30.778;2022-09-09T06:52:42;4.80;;;2.63;;
46447;SDS011;32145;50.390;30.778;2022-09-09T06:55:29;5.03;;;2.75;;
46447;SDS011;32145;50.390;30.778;2022-09-09T06:58:15;6.32;;;2.60;;
46447;SDS011;32145;50.390;30.778;2022-09-09T07:01:02;7.18;;;2.45;;
46447;SDS011;32145;50.390;30.778;2022-09-09T07:03:48;5.75;;;2.33;;
46447;SDS011;32145;50.390;30.778;2022-09-09T07:06:34;4.57;;;2.03;;
46447;SDS011;32145;50.390;30.778;2022-09-09T07:09:20;5.43;;;2.13;;
46447;SDS011;32145;50.390;30.778;2022-09-09T07:12:04;4.28;;;2.13;;
46447;SDS011;32145;50.390;30.778;2022-09-09T07:14:52;4.65;;;2.40;;
46447;SDS011;32145;50.390;30.778;2022-09-09T07:17:36;4.15;;;2.33;;
46447;SDS011;32145;50.390;30.778;2022-09-09T07:20:20;4.25;;;2.17;;
46447;SDS011;32145;50.390;30.778;2022-09-09T07:23:04;4.65;;;1.95;;
46447;SDS011;32145;50.390;30.778;2022-09-09T07:25:48;4.13;;;2.22;;
46447;SDS011;32145;50.390;30.778;2022-09-09T07:28:32;3.97;;;2.13;;
46447;SDS011;32145;50.390;30.778;2022-09-09T07:31:18;5.28;;;2.10;;
46447;SDS011;32145;50.390;30.778;2022-09-09T07:34:08;3.70;;;2.17;;
46447;SDS011;32145;50.390;30.778;2022-09-09T07:36:52;4.30;;;2.10;;
46447;SDS011;32145;50.390;30.778;2022-09-09T07:39:36;3.85;;;2.05;;
46447;SDS011;32145;50.390;30.778;2022-09-09T07:42:20;3.92;;;2.30;;
46447;SDS011;32145;50.390;30.778;2022-09-09T07:45:04;7.50;;;2.40;;
46447;SDS011;32145;50.390;30.778;2022-09-09T07:47:52;5.60;;;2.08;;
46447;SDS011;32145;50.390;30.778;2022-09-09T07:50:36;5.53;;;2.03;;
46447;SDS011;32145;50.390;30.778;2022-09-09T07:53:20;3.60;;;1.58;;
46447;SDS011;32145;50.390;30.778;2022-09-09T07:56:04;3.03;;;1.50;;
46447;SDS011;32145;50.390;30.778;2022-09-09T07:58:50;4.72;;;1.50;;
46447;SDS011;32145;50.390;30.778;2022-09-09T08:01:36;4.03;;;1.63;;
46447;SDS011;32145;50.390;30.778;2022-09-09T08:04:23;3.85;;;1.30;;
46447;SDS011;32145;50.390;30.778;2022-09-09T08:07:08;2.10;;;1.13;;
46447;SDS011;32145;50.390;30.778;2022-09-09T08:09:54;2.92;;;1.15;;
46447;SDS011;32145;50.390;30.778;2022-09-09T08:12:38;2.53;;;1.35;;
46447;SDS011;32145;50.390;30.778;2022-09-09T08:15:24;3.25;;;1.30;;
46447;SDS011;32145;50.390;30.778;2022-09-09T08:18:09;2.80;;;1.13;;
46447;SDS011;32145;50.390;30.778;2022-09-09T08:20:54;2.47;;;1.48;;
46447;SDS011;32145;50.390;30.778;2022-09-09T08:23:38;2.85;;;1.40;;
46447;SDS011;32145;50.390;30.778;2022-09-09T08:26:25;3.13;;;1.20;;
46447;SDS011;32145;50.390;30.778;2022-09-09T08:29:12;2.13;;;1.30;;
46447;SDS011;32145;50.390;30.778;2022-09-09T08:31:57;2.65;;;1.35;;
46447;SDS011;32145;50.390;30.778;2022-09-09T08:34:42;1.95;;;1.10;;
46447;SDS011;32145;50.390;30.778;2022-09-09T08:37:28;2.92;;;1.30;;
46447;SDS011;32145;50.390;30.778;2022-09-09T08:40:13;2.25;;;1.10;;
46447;SDS011;32145;50.390;30.778;2022-09-09T08:43:07;2.67;;;1.30;;
46447;SDS011;32145;50.390;30.778;2022-09-09T08:45:54;2.00;;;1.00;;
46447;SDS011;32145;50.390;30.778;2022-09-09T08:48:47;1.80;;;1.10;;
46447;SDS011;32145;50.390;30.778;2022-09-09T08:51:37;2.63;;;1.30;;
46447;SDS011;32145;50.390;30.778;2022-09-09T08:54:23;4.07;;;1.40;;
46447;SDS011;32145;50.390;30.778;2022-09-09T08:57:14;5.07;;;1.13;;
46447;SDS011;32145;50.390;30.778;2022-09-09T09:00:07;6.63;;;1.27;;
46447;SDS011;32145;50.390;30.778;2022-09-09T09:02:54;4.25;;;1.13;;
46447;SDS011;32145;50.390;30.778;2022-09-09T09:05:51;2.58;;;1.30;;
46447;SDS011;32145;50.390;30.778;2022-09-09T09:08:46;2.47;;;1.10;;
46447;SDS011;32145;50.390;30.778;2022-09-09T09:11:40;2.15;;;1.20;;
46447;SDS011;32145;50.390;30.778;2022-09-09T09:14:29;2.90;;;1.20;;
46447;SDS011;32145;50.390;30.778;2022-09-09T09:17:18;2.30;;;1.10;;
46447;SDS011;32145;50.390;30.778;2022-09-09T09:20:05;3.78;;;1.20;;
46447;SDS011;32145;50.390;30.778;2022-09-09T09:22:55;5.22;;;1.23;;
46447;SDS011;32145;50.390;30.778;2022-09-09T09:25:46;1.92;;;1.17;;
46447;SDS011;32145;50.390;30.778;2022-09-09T09:28:32;2.05;;;1.10;;
46447;SDS011;32145;50.390;30.778;2022-09-09T09:31:17;2.13;;;1.02;;
46447;SDS011;32145;50.390;30.778;2022-09-09T09:34:03;3.10;;;1.17;;
46447;SDS011;32145;50.390;30.778;2022-09-09T09:36:52;2.95;;;1.27;;
46447;SDS011;32145;50.390;30.778;2022-09-09T09:42:21;1.73;;;0.98;;
46447;SDS011;32145;50.390;30.778;2022-09-09T09:45:15;2.03;;;1.20;;
46447;SDS011;32145;50.390;30.778;2022-09-09T09:48:05;2.13;;;1.20;;
46447;SDS011;32145;50.390;30.778;2022-09-09T09:50:51;2.95;;;1.20;;
46447;SDS011;32145;50.390;30.778;2022-09-09T09:53:36;4.30;;;1.13;;
46447;SDS011;32145;50.390;30.778;2022-09-09T09:56:28;2.67;;;0.98;;
46447;SDS011;32145;50.390;30.778;2022-09-09T09:59:19;2.00;;;1.15;;
46447;SDS011;32145;50.390;30.778;2022-09-09T10:02:19;2.15;;;1.20;;
46447;SDS011;32145;50.390;30.778;2022-09-09T10:05:05;4.70;;;1.17;;
46447;SDS011;32145;50.390;30.778;2022-09-09T10:08:03;4.68;;;1.25;;
46447;SDS011;32145;50.390;30.778;2022-09-09T10:10:53;3.67;;;1.25;;
46447;SDS011;32145;50.390;30.778;2022-09-09T10:13:47;2.63;;;1.20;;
46447;SDS011;32145;50.390;30.778;2022-09-09T10:16:42;5.20;;;1.15;;
46447;SDS011;32145;50.390;30.778;2022-09-09T10:19:41;2.10;;;1.13;;
46447;SDS011;32145;50.390;30.778;2022-09-09T10:22:30;3.72;;;1.05;;
46447;SDS011;32145;50.390;30.778;2022-09-09T10:25:22;3.28;;;1.20;;
46447;SDS011;32145;50.390;30.778;2022-09-09T10:28:18;3.88;;;1.10;;
46447;SDS011;32145;50.390;30.778;2022-09-09T10:31:17;2.97;;;1.10;;
46447;SDS011;32145;50.390;30.778;2022-09-09T10:34:11;2.70;;;1.20;;
46447;SDS011;32145;50.390;30.778;2022-09-09T10:37:02;2.20;;;1.20;;
46447;SDS011;32145;50.390;30.778;2022-09-09T10:40:02;3.35;;;1.10;;
46447;SDS011;32145;50.390;30.778;2022-09-09T10:43:01;2.53;;;1.40;;
46447;SDS011;32145;50.390;30.778;2022-09-09T10:45:55;4.05;;;1.10;;
46447;SDS011;32145;50.390;30.778;2022-09-09T10:48:53;2.30;;;1.20;;
46447;SDS011;32145;50.390;30.778;2022-09-09T10:51:50;2.15;;;1.30;;
46447;SDS011;32145;50.390;30.778;2022-09-09T10:54:53;2.40;;;1.20;;
46447;SDS011;32145;50.390;30.778;2022-09-09T10:57:42;1.95;;;1.05;;
46447;SDS011;32145;50.390;30.778;2022-09-09T11:00:31;2.17;;;1.10;;
46447;SDS011;32145;50.390;30.778;2022-09-09T11:03:23;2.35;;;1.00;;
46447;SDS011;32145;50.390;30.778;2022-09-09T11:06:12;3.55;;;1.20;;
46447;SDS011;32145;50.390;30.778;2022-09-09T11:08:59;2.05;;;1.10;;
46447;SDS011;32145;50.390;30.778;2022-09-09T11:11:49;5.03;;;1.20;;
46447;SDS011;32145;50.390;30.778;2022-09-09T11:14:36;2.00;;;1.10;;
46447;SDS011;32145;50.390;30.778;2022-09-09T11:17:26;2.80;;;1.20;;
46447;SDS011;32145;50.390;30.778;2022-09-09T11:20:16;2.60;;;1.13;;
46447;SDS011;32145;50.390;30.778;2022-09-09T11:23:01;1.90;;;1.00;;
46447;SDS011;32145;50.390;30.778;2022-09-09T11:25:50;4.88;;;1.23;;
46447;SDS011;32145;50.390;30.778;2022-09-09T11:28:43;2.72;;;1.40;;
46447;SDS011;32145;50.390;30.778;2022-09-09T11:31:46;3.70;;;1.23;;
46447;SDS011;32145;50.390;30.778;2022-09-09T11:34:44;3.70;;;1.20;;
46447;SDS011;32145;50.390;30.778;2022-09-09T11:37:39;3.42;;;1.33;;
46447;SDS011;32145;50.390;30.778;2022-09-09T11:40:38;4.82;;;1.20;;
46447;SDS011;32145;50.390;30.778;2022-09-09T11:43:23;2.35;;;1.17;;
46447;SDS011;32145;50.390;30.778;2022-09-09T11:46:13;3.83;;;1.53;;
46447;SDS011;32145;50.390;30.778;2022-09-09T11:49:01;4.83;;;1.17;;
46447;SDS011;32145;50.390;30.778;2022-09-09T11:51:49;4.70;;;1.40;;
46447;SDS011;32145;50.390;30.778;2022-09-09T11:54:33;3.38;;;1.27;;
46447;SDS011;32145;50.390;30.778;2022-09-09T11:57:30;1.92;;;1.00;;
46447;SDS011;32145;50.390;30.778;2022-09-09T12:00:30;2.60;;;1.02;;
46447;SDS011;32145;50.390;30.778;2022-09-09T12:06:26;3.70;;;1.40;;
46447;SDS011;32145;50.390;30.778;2022-09-09T12:09:18;4.60;;;1.15;;
46447;SDS011;32145;50.390;30.778;2022-09-09T12:12:07;2.25;;;1.20;;
46447;SDS011;32145;50.390;30.778;2022-09-09T12:15:18;3.65;;;1.10;;
46447;SDS011;32145;50.390;30.778;2022-09-09T12:18:05;3.22;;;1.50;;
46447;SDS011;32145;50.390;30.778;2022-09-09T12:21:02;4.78;;;1.50;;
46447;SDS011;32145;50.390;30.778;2022-09-09T12:23:54;2.70;;;1.20;;
46447;SDS011;32145;50.390;30.778;2022-09-09T12:26:42;3.28;;;1.35;;
46447;SDS011;32145;50.390;30.778;2022-09-09T12:32:22;2.20;;;1.23;;
46447;SDS011;32145;50.390;30.778;2022-09-09T12:35:09;4.45;;;1.27;;
46447;SDS011;32145;50.390;30.778;2022-09-09T12:38:00;3.17;;;1.42;;
46447;SDS011;32145;50.390;30.778;2022-09-09T12:40:53;2.60;;;1.30;;
46447;SDS011;32145;50.390;30.778;2022-09-09T12:43:39;4.78;;;1.42;;
46447;SDS011;32145;50.390;30.778;2022-09-09T12:46:27;3.25;;;1.08;;
46447;SDS011;32145;50.390;30.778;2022-09-09T12:49:24;1.83;;;1.10;;
46447;SDS011;32145;50.390;30.778;2022-09-09T12:52:13;2.65;;;1.05;;
46447;SDS011;32145;50.390;30.778;2022-09-09T12:55:02;4.63;;;1.43;;
46447;SDS011;32145;50.390;30.778;2022-09-09T12:58:00;5.22;;;1.30;;
46447;SDS011;32145;50.390;30.778;2022-09-09T13:00:48;3.15;;;1.13;;
46447;SDS011;32145;50.390;30.778;2022-09-09T13:03:41;2.50;;;1.23;;
46447;SDS011;32145;50.390;30.778;2022-09-09T13:06:27;2.97;;;1.05;;
46447;SDS011;32145;50.390;30.778;2022-09-09T13:09:12;3.95;;;1.20;;
46447;SDS011;32145;50.390;30.778;2022-09-09T13:11:57;4.45;;;1.40;;
46447;SDS011;32145;50.390;30.778;2022-09-09T13:14:43;2.85;;;1.20;;
46447;SDS011;32145;50.390;30.778;2022-09-09T13:17:30;2.20;;;1.10;;
46447;SDS011;32145;50.390;30.778;2022-09-09T13:20:16;3.08;;;1.15;;
46447;SDS011;32145;50.390;30.778;2022-09-09T13:23:01;2.75;;;1.10;;
46447;SDS011;32145;50.390;30.778;2022-09-09T13:25:52;3.28;;;1.27;;
46447;SDS011;32145;50.390;30.778;2022-09-09T13:28:39;3.33;;;1.20;;
46447;SDS011;32145;50.390;30.778;2022-09-09T13:31:24;2.35;;;1.20;;
46447;SDS011;32145;50.390;30.778;2022-09-09T13:34:12;2.38;;;1.30;;
46447;SDS011;32145;50.390;30.778;2022-09-09T13:36:58;2.72;;;1.55;;
46447;SDS011;32145;50.390;30.778;2022-09-09T13:39:50;5.32;;;1.33;;
46447;SDS011;32145;50.390;30.778;2022-09-09T13:42:37;2.20;;;1.35;;
46447;SDS011;32145;50.390;30.778;2022-09-09T13:45:28;4.65;;;1.35;;
46447;SDS011;32145;50.390;30.778;2022-09-09T13:48:17;3.53;;;1.50;;
46447;SDS011;32145;50.390;30.778;2022-09-09T13:51:03;3.67;;;1.30;;
46447;SDS011;32145;50.390;30.778;2022-09-09T13:53:48;2.92;;;1.17;;
46447;SDS011;32145;50.390;30.778;2022-09-09T13:56:32;1.90;;;1.10;;
46447;SDS011;32145;50.390;30.778;2022-09-09T13:59:17;2.78;;;1.40;;
46447;SDS011;32145;50.390;30.778;2022-09-09T14:02:04;3.20;;;1.30;;
46447;SDS011;32145;50.390;30.778;2022-09-09T14:04:49;2.83;;;1.30;;
46447;SDS011;32145;50.390;30.778;2022-09-09T14:07:33;3.17;;;1.90;;
46447;SDS011;32145;50.390;30.778;2022-09-09T14:10:17;3.80;;;1.52;;
46447;SDS011;32145;50.390;30.778;2022-09-09T14:13:01;3.97;;;1.60;;
46447;SDS011;32145;50.390;30.778;2022-09-09T14:15:45;3.83;;;1.60;;
46447;SDS011;32145;50.390;30.778;2022-09-09T14:18:30;2.35;;;1.48;;
46447;SDS011;32145;50.390;30.778;2022-09-09T14:21:14;3.45;;;1.60;;
46447;SDS011;32145;50.390;30.778;2022-09-09T14:23:58;4.70;;;1.65;;
46447;SDS011;32145;50.390;30.778;2022-09-09T14:26:42;4.70;;;1.50;;
46447;SDS011;32145;50.390;30.778;2022-09-09T14:29:26;2.85;;;1.60;;
46447;SDS011;32145;50.390;30.778;2022-09-09T14:32:10;5.95;;;1.95;;
46447;SDS011;32145;50.390;30.778;2022-09-09T14:34:56;2.72;;;1.50;;
46447;SDS011;32145;50.390;30.778;2022-09-09T14:37:40;4.70;;;1.52;;
46447;SDS011;32145;50.390;30.778;2022-09-09T14:40:25;4.10;;;2.20;;
46447;SDS011;32145;50.390;30.778;2022-09-09T14:43:09;7.88;;;1.90;;
46447;SDS011;32145;50.390;30.778;2022-09-09T14:45:54;3.88;;;1.70;;
46447;SDS011;32145;50.390;30.778;2022-09-09T14:48:38;3.10;;;1.55;;
46447;SDS011;32145;50.390;30.778;2022-09-09T14:51:24;3.75;;;1.50;;
46447;SDS011;32145;50.390;30.778;2022-09-09T14:54:08;3.42;;;1.50;;
46447;SDS011;32145;50.390;30.778;2022-09-09T14:56:52;2.75;;;1.50;;
46447;SDS011;32145;50.390;30.778;2022-09-09T14:59:36;4.40;;;1.63;;
46447;SDS011;32145;50.390;30.778;2022-09-09T15:02:23;4.53;;;1.70;;
46447;SDS011;32145;50.390;30.778;2022-09-09T15:05:08;3.30;;;1.48;;
46447;SDS011;32145;50.390;30.778;2022-09-09T15:07:53;3.42;;;1.50;;
46447;SDS011;32145;50.390;30.778;2022-09-09T15:10:37;5.95;;;2.08;;
46447;SDS011;32145;50.390;30.778;2022-09-09T15:13:21;3.05;;;1.50;;
46447;SDS011;32145;50.390;30.778;2022-09-09T15:16:06;5.95;;;1.63;;
46447;SDS011;32145;50.390;30.778;2022-09-09T15:18:51;4.57;;;1.63;;
46447;SDS011;32145;50.390;30.778;2022-09-09T15:21:37;4.10;;;1.70;;
46447;SDS011;32145;50.390;30.778;2022-09-09T15:24:22;5.38;;;1.80;;
46447;SDS011;32145;50.390;30.778;2022-09-09T15:27:06;3.05;;;1.60;;
46447;SDS011;32145;50.390;30.778;2022-09-09T15:29:50;6.32;;;2.15;;
46447;SDS011;32145;50.390;30.778;2022-09-09T15:32:34;4.85;;;1.90;;
46447;SDS011;32145;50.390;30.778;2022-09-09T15:35:18;3.85;;;2.00;;
46447;SDS011;32145;50.390;30.778;2022-09-09T15:38:02;3.60;;;2.00;;
46447;SDS011;32145;50.390;30.778;2022-09-09T15:40:54;3.08;;;1.80;;
46447;SDS011;32145;50.390;30.778;2022-09-09T15:43:38;3.93;;;1.60;;
46447;SDS011;32145;50.390;30.778;2022-09-09T15:46:27;4.85;;;2.25;;
46447;SDS011;32145;50.390;30.778;2022-09-09T15:49:14;8.18;;;2.33;;
46447;SDS011;32145;50.390;30.778;2022-09-09T15:51:59;27.30;;;13.77;;
46447;SDS011;32145;50.390;30.778;2022-09-09T15:54:43;22.00;;;10.10;;
46447;SDS011;32145;50.390;30.778;2022-09-09T15:57:29;14.02;;;6.10;;
46447;SDS011;32145;50.390;30.778;2022-09-09T16:00:13;11.93;;;5.78;;
46447;SDS011;32145;50.390;30.778;2022-09-09T16:02:57;14.45;;;5.72;;
46447;SDS011;32145;50.390;30.778;2022-09-09T16:05:41;13.80;;;6.70;;
46447;SDS011;32145;50.390;30.778;2022-09-09T16:08:30;14.60;;;6.40;;
46447;SDS011;32145;50.390;30.778;2022-09-09T16:11:16;15.63;;;6.85;;
46447;SDS011;32145;50.390;30.778;2022-09-09T16:14:03;14.38;;;6.95;;
46447;SDS011;32145;50.390;30.778;2022-09-09T16:16:48;14.05;;;6.97;;
46447;SDS011;32145;50.390;30.778;2022-09-09T16:19:32;18.90;;;7.45;;
46447;SDS011;32145;50.390;30.778;2022-09-09T16:22:16;12.73;;;6.35;;
46447;SDS011;32145;50.390;30.778;2022-09-09T16:25:03;11.90;;;6.35;;
46447;SDS011;32145;50.390;30.778;2022-09-09T16:27:48;12.23;;;5.90;;
46447;SDS011;32145;50.390;30.778;2022-09-09T16:30:33;8.75;;;4.78;;
46447;SDS011;32145;50.390;30.778;2022-09-09T16:33:20;8.90;;;4.55;;
46447;SDS011;32145;50.390;30.778;2022-09-09T16:36:07;10.77;;;5.45;;
46447;SDS011;32145;50.390;30.778;2022-09-09T16:38:52;12.07;;;5.50;;
46447;SDS011;32145;50.390;30.778;2022-09-09T16:41:37;13.15;;;5.95;;
46447;SDS011;32145;50.390;30.778;2022-09-09T16:44:23;13.93;;;6.55;;
46447;SDS011;32145;50.390;30.778;2022-09-09T16:47:08;17.13;;;7.90;;
46447;SDS011;32145;50.390;30.778;2022-09-09T16:49:53;16.15;;;7.80;;